Time;durP1;ratioP1;P1;durP2;ratioP2;P2;SDS_P1;SDS_P2;PMS_P1;PMS_P2;Temp;Humidity;BMP_temperature;BMP_pressure;BME280_temperature;BME280_humidity;BME280_pressure;Samples;Min_cycle;Max_cycle;Signal;HPM_P1;HPM_P2
2021/09/16 00:07:47;;;;;;;31.2;24.9;;;;;;;15.25;100;98277.08;;;;
2021/09/16 00:17:47;;;;;;;31.9;23.9;;;;;;;15.24;100;98267.34;;;;
2021/09/16 00:27:46;;;;;;;28;23.8;;;;;;;15.26;100;98267.01;;;;
2021/09/16 00:37:46;;;;;;;25.3;22.8;;;;;;;15.3;100;98265.19;;;;
2021/09/16 00:47:45;;;;;;;29.2;25;;;;;;;15.36;100;98263.8;;;;
2021/09/16 00:57:45;;;;;;;28.8;23.4;;;;;;;15.36;100;98261.08;;;;
2021/09/16 01:07:45;;;;;;;25.5;23;;;;;;;15.38;100;98267.73;;;;
2021/09/16 01:17:44;;;;;;;25.9;23.2;;;;;;;15.45;100;98262.5;;;;
2021/09/16 01:27:44;;;;;;;26.6;23.7;;;;;;;15.52;100;98257.29;;;;
2021/09/16 01:37:43;;;;;;;28.8;24.4;;;;;;;15.53;100;98258.08;;;;
2021/09/16 01:47:43;;;;;;;28.7;24.6;;;;;;;15.6;100;98241.98;;;;
2021/09/16 01:57:43;;;;;;;26.4;23.6;;;;;;;15.7;100;98246.89;;;;
2021/09/16 02:07:42;;;;;;;24.7;22.2;;;;;;;15.77;100;98246.28;;;;
2021/09/16 02:17:42;;;;;;;26.9;23.7;;;;;;;15.78;100;98237.8;;;;
2021/09/16 02:27:42;;;;;;;25.9;23.1;;;;;;;15.81;100;98242.53;;;;
2021/09/16 02:37:42;;;;;;;30.5;27.3;;;;;;;15.79;100;98235.88;;;;
2021/09/16 02:47:41;;;;;;;28.2;24.4;;;;;;;15.74;100;98223.33;;;;
2021/09/16 02:57:41;;;;;;;28.1;25.3;;;;;;;15.68;100;98218.5;;;;
2021/09/16 03:07:41;;;;;;;35.7;26.7;;;;;;;15.62;100;98226.1;;;;
2021/09/16 03:17:40;;;;;;;36.6;30.2;;;;;;;15.67;100;98225.86;;;;
2021/09/16 03:27:40;;;;;;;45.2;29.8;;;;;;;15.54;100;98218.92;;;;
2021/09/16 03:37:40;;;;;;;31.1;28;;;;;;;15.62;100;98217.19;;;;
2021/09/16 03:47:39;;;;;;;35.7;25.6;;;;;;;15.67;100;98225.86;;;;
2021/09/16 03:57:39;;;;;;;32.5;28.2;;;;;;;15.79;100;98222.28;;;;
2021/09/16 04:07:39;;;;;;;29.7;26.6;;;;;;;15.77;100;98217.19;;;;
2021/09/16 04:17:39;;;;;;;33.6;29.2;;;;;;;15.79;100;98217.61;;;;
2021/09/16 04:27:39;;;;;;;30;26.8;;;;;;;15.94;100;98224.2;;;;
2021/09/16 04:37:38;;;;;;;33.3;29.2;;;;;;;16.01;100;98229.81;;;;
2021/09/16 04:47:39;;;;;;;31.7;24.3;;;;;;;16.06;100;98235.79;;;;
2021/09/16 04:57:39;;;;;;;29.4;26.3;;;;;;;16.25;100;98226.89;;;;
2021/09/16 05:07:38;;;;;;;28.1;25.1;;;;;;;16.58;100;98227.31;;;;
2021/09/16 05:17:37;;;;;;;34.1;28.5;;;;;;;16.81;100;98243.73;;;;
2021/09/16 05:27:37;;;;;;;32.5;29;;;;;;;16.88;100;98248.53;;;;
2021/09/16 05:37:37;;;;;;;33.4;27;;;;;;;17.26;100;98245.03;;;;
2021/09/16 05:47:37;;;;;;;39.8;30.8;;;;;;;17.66;100;98253.64;;;;
2021/09/16 05:57:37;;;;;;;31.8;28.2;;;;;;;18;100;98241.77;;;;
2021/09/16 06:07:38;;;;;;;36;30.2;;;;;;;18.62;100;98253.28;;;;
2021/09/16 06:17:37;;;;;;;31.6;28.2;;;;;;;18.93;100;98252.14;;;;
2021/09/16 06:27:37;;;;;;;31.5;25.8;;;;;;;19.14;100;98270.75;;;;
2021/09/16 06:37:37;;;;;;;29.9;25.5;;;;;;;19.65;100;98263.56;;;;
2021/09/16 06:47:38;;;;;;;25.1;21.3;;;;;;;20.11;100;98269.48;;;;
2021/09/16 06:57:38;;;;;;;18.2;14.3;;;;;;;20.5;100;98272.57;;;;
2021/09/16 07:07:38;;;;;;;20.3;17.2;;;;;;;20.69;100;98285.23;;;;
2021/09/16 07:17:39;;;;;;;20.2;14.3;;;;;;;20.87;100;98286.89;;;;
2021/09/16 07:27:39;;;;;;;22.7;13.1;;;;;;;21.27;100;98285.19;;;;
2021/09/16 07:37:40;;;;;;;14.7;11.6;;;;;;;21.77;100;98273.19;;;;
2021/09/16 07:47:40;;;;;;;14.2;9.5;;;;;;;22.17;100;98285.05;;;;
2021/09/16 07:57:41;;;;;;;12.7;9.2;;;;;;;22.45;100;98296.05;;;;
2021/09/16 08:07:41;;;;;;;14.3;9.8;;;;;;;22.59;100;98301.53;;;;
2021/09/16 08:17:42;;;;;;;18.9;13;;;;;;;23;100;98299.92;;;;
2021/09/16 08:27:43;;;;;;;26.9;16;;;;;;;23.12;100;98317.94;;;;
2021/09/16 08:37:44;;;;;;;15.9;11.4;;;;;;;22.99;100;98323.09;;;;
2021/09/16 08:47:44;;;;;;;22.7;12.7;;;;;;;23.39;100;98332.02;;;;
2021/09/16 08:57:45;;;;;;;19.8;12.9;;;;;;;23.48;100;98318.65;;;;
2021/09/16 09:07:46;;;;;;;24;11.1;;;;;;;23.94;100;98324.72;;;;
2021/09/16 09:17:47;;;;;;;14.2;9.4;;;;;;;23.91;100;98330.25;;;;
2021/09/16 09:27:48;;;;;;;15.1;11;;;;;;;23.92;100;98323.53;;;;
2021/09/16 09:37:49;;;;;;;23.9;11.3;;;;;;;23.89;100;98321.59;;;;
2021/09/16 09:47:49;;;;;;;14.9;10.4;;;;;;;23.73;100;98327.58;;;;
2021/09/16 09:57:50;;;;;;;14.6;12.3;;;;;;;24.05;100;98333.67;;;;
2021/09/16 10:07:51;;;;;;;19;14.5;;;;;;;24.4;100;98323.66;;;;
2021/09/16 10:17:52;;;;;;;18.1;11.8;;;;;;;25.08;100;98319.13;;;;
2021/09/16 10:27:53;;;;;;;21.4;14.8;;;;;;;24.94;100;98314.53;;;;
2021/09/16 10:37:54;;;;;;;20.7;14.7;;;;;;;24.65;100;98315.95;;;;
2021/09/16 10:47:55;;;;;;;17.7;15.7;;;;;;;24.71;100;98306.08;;;;
2021/09/16 10:57:56;;;;;;;19.3;13;;;;;;;25.25;100;98287.02;;;;
2021/09/16 11:07:58;;;;;;;18.8;13.8;;;;;;;25.26;100;98297.65;;;;
2021/09/16 11:17:58;;;;;;;14;11.7;;;;;;;25.36;100;98288.46;;;;
2021/09/16 11:27:59;;;;;;;15.6;11.4;;;;;;;25.7;100;98279.38;;;;
2021/09/16 11:38:00;;;;;;;17.5;12.8;;;;;;;25.77;100;98265.47;;;;
2021/09/16 11:48:01;;;;;;;16.3;11.5;;;;;;;26.42;100;98256.58;;;;
2021/09/16 11:58:02;;;;;;;15.5;11.4;;;;;;;25.93;100;98244.31;;;;
2021/09/16 12:08:03;;;;;;;12.7;9.5;;;;;;;26.68;100;98243.9;;;;
2021/09/16 12:18:04;;;;;;;14.5;12.1;;;;;;;26.66;100;98231.71;;;;
2021/09/16 12:28:05;;;;;;;23.2;11.4;;;;;;;26.74;100;98231.14;;;;
2021/09/16 12:38:06;;;;;;;13.3;10.5;;;;;;;26.55;100;98234.67;;;;
2021/09/16 12:48:08;;;;;;;21.1;11.4;;;;;;;26.28;100;98220.11;;;;
2021/09/16 12:58:09;;;;;;;14;10.1;;;;;;;26.38;100;98221.94;;;;
2021/09/16 13:08:15;;;;;;;17.2;12.2;;;;;;;26.26;100;98211.48;;;;
2021/09/16 13:18:14;;;;;;;19.4;12.9;;;;;;;26.12;100;98206.94;;;;
2021/09/16 13:28:14;;;;;;;16.6;12.2;;;;;;;25.7;100;98189.06;;;;
2021/09/16 13:38:13;;;;;;;18.2;13.1;;;;;;;25.7;100;98194.59;;;;
2021/09/16 13:48:15;;;;;;;18.7;12.7;;;;;;;25.64;100;98203.75;;;;
2021/09/16 13:58:15;;;;;;;15.2;10.9;;;;;;;25.19;100;98194.88;;;;
2021/09/16 14:08:16;;;;;;;17.9;12.1;;;;;;;24.92;100;98198.34;;;;
2021/09/16 14:18:17;;;;;;;15.4;11.2;;;;;;;24.54;100;98192.05;;;;
2021/09/16 14:28:18;;;;;;;12.8;10.4;;;;;;;24.18;100;98190.05;;;;
2021/09/16 14:38:18;;;;;;;15.4;8.4;;;;;;;23.87;100;98187.13;;;;
2021/09/16 14:48:19;;;;;;;11.1;8.5;;;;;;;23.79;100;98180.11;;;;
2021/09/16 14:58:20;;;;;;;11.8;7.4;;;;;;;23.33;100;98182.33;;;;
2021/09/16 15:08:21;;;;;;;16.2;8.6;;;;;;;23.22;100;98173.38;;;;
2021/09/16 15:18:21;;;;;;;13;8.3;;;;;;;22.98;100;98181.33;;;;
2021/09/16 15:28:22;;;;;;;13.9;9.8;;;;;;;22.82;100;98177.47;;;;
2021/09/16 15:38:23;;;;;;;14.5;10.2;;;;;;;22.53;100;98172.03;;;;
2021/09/16 15:48:26;;;;;;;13.6;10.9;;;;;;;22.37;100;98168.94;;;;
2021/09/16 15:58:24;;;;;;;13.1;11.2;;;;;;;22;100;98160.36;;;;
2021/09/16 16:08:24;;;;;;;14.9;11.8;;;;;;;21.89;100;98165.03;;;;
2021/09/16 16:18:25;;;;;;;18.9;12.7;;;;;;;21.9;100;98159.17;;;;
2021/09/16 16:28:25;;;;;;;13;10.6;;;;;;;21.73;100;98168.15;;;;
2021/09/16 16:38:26;;;;;;;14.4;12.9;;;;;;;21.54;100;98185.78;;;;
2021/09/16 16:48:26;;;;;;;19.8;15.5;;;;;;;21.27;100;98186.5;;;;
2021/09/16 16:58:27;;;;;;;26.7;19.4;;;;;;;21.01;100;98201.25;;;;
2021/09/16 17:08:27;;;;;;;22;16.7;;;;;;;20.84;100;98197.27;;;;
2021/09/16 17:18:27;;;;;;;35.7;19.5;;;;;;;20.55;100;98196.32;;;;
2021/09/16 17:28:29;;;;;;;19;13.8;;;;;;;20.04;100;98190.08;;;;
2021/09/16 17:38:28;;;;;;;14.8;13;;;;;;;19.96;100;98194.7;;;;
2021/09/16 17:48:28;;;;;;;15.9;12.9;;;;;;;19.61;100;98194.39;;;;
2021/09/16 17:58:29;;;;;;;19.4;14.8;;;;;;;19.35;100;98178.09;;;;
2021/09/16 18:08:29;;;;;;;19.2;14.2;;;;;;;19.21;100;98186.94;;;;
2021/09/16 18:18:29;;;;;;;17.9;15.2;;;;;;;19.13;100;98170.82;;;;
2021/09/16 18:28:29;;;;;;;16.6;13.7;;;;;;;19.09;100;98182.5;;;;
2021/09/16 18:38:30;;;;;;;17.6;12.2;;;;;;;19.21;100;98188.88;;;;
2021/09/16 18:48:30;;;;;;;12.9;10.9;;;;;;;19.16;100;98184.52;;;;
2021/09/16 18:58:30;;;;;;;13.6;11.1;;;;;;;19.12;100;98182.93;;;;
2021/09/16 19:08:30;;;;;;;21.2;16;;;;;;;19.02;100;98185.14;;;;
2021/09/16 19:18:30;;;;;;;20.7;14.7;;;;;;;18.93;100;98186.6;;;;
2021/09/16 19:28:31;;;;;;;18.8;14.8;;;;;;;18.91;100;98186.98;;;;
2021/09/16 19:38:30;;;;;;;18.7;16.4;;;;;;;18.81;100;98186.86;;;;
2021/09/16 19:48:30;;;;;;;20.6;16.2;;;;;;;18.93;100;98206.51;;;;
2021/09/16 19:58:31;;;;;;;22.1;18.4;;;;;;;18.94;100;98196.38;;;;
2021/09/16 20:08:31;;;;;;;17.4;15.5;;;;;;;18.83;100;98204.44;;;;
2021/09/16 20:18:31;;;;;;;22.9;16.4;;;;;;;18.83;100;98209.89;;;;
2021/09/16 20:28:31;;;;;;;21.4;18.1;;;;;;;18.89;100;98208.41;;;;
2021/09/16 20:38:31;;;;;;;22.3;17.1;;;;;;;18.82;100;98202.84;;;;
2021/09/16 20:48:31;;;;;;;18.7;16.7;;;;;;;18.68;100;98208.13;;;;
2021/09/16 20:58:31;;;;;;;17.9;14.9;;;;;;;18.74;100;98189.49;;;;
2021/09/16 21:08:31;;;;;;;18.3;13.8;;;;;;;18.74;100;98200.41;;;;
2021/09/16 21:18:31;;;;;;;19.6;13.3;;;;;;;18.72;100;98198.04;;;;
2021/09/16 21:28:31;;;;;;;18;14.8;;;;;;;18.67;100;98200.31;;;;
2021/09/16 21:38:31;;;;;;;17.6;15.2;;;;;;;18.74;100;98206.66;;;;
2021/09/16 21:48:32;;;;;;;19.9;16;;;;;;;18.68;100;98202.66;;;;
2021/09/16 21:58:31;;;;;;;19.4;15.9;;;;;;;18.66;100;98198.73;;;;
2021/09/16 22:08:31;;;;;;;21;16.3;;;;;;;18.68;100;98201.88;;;;
2021/09/16 22:18:31;;;;;;;17.2;15.4;;;;;;;18.68;100;98180.03;;;;
2021/09/16 22:28:31;;;;;;;18.9;17;;;;;;;18.67;100;98154.7;;;;
2021/09/16 22:38:31;;;;;;;21.7;16.8;;;;;;;18.54;100;98145.16;;;;
2021/09/16 22:48:31;;;;;;;26.4;15.7;;;;;;;18.34;100;98138.23;;;;
2021/09/16 22:58:31;;;;;;;20;16;;;;;;;18.1;100;98134.8;;;;
2021/09/16 23:08:31;;;;;;;21.2;16.4;;;;;;;18.05;100;98150.66;;;;
2021/09/16 23:18:31;;;;;;;19.8;15.5;;;;;;;18.08;100;98150.72;;;;
2021/09/16 23:28:31;;;;;;;17.5;13.8;;;;;;;18.16;100;98150.83;;;;
2021/09/16 23:38:31;;;;;;;16.8;13.8;;;;;;;18.32;100;98144.07;;;;
2021/09/16 23:48:31;;;;;;;14.8;13.3;;;;;;;18.39;100;98130.53;;;;
2021/09/16 23:58:31;;;;;;;15.8;12.7;;;;;;;18.3;100;98123.75;;;;
